createdAt,value
2017-08-24T00:00:21.761Z,66.10
2017-08-24T00:02:49.212Z,66.30
2017-08-24T00:05:16.669Z,67.00
2017-08-24T00:07:44.120Z,66.70
2017-08-24T00:10:11.576Z,66.80
2017-08-24T00:12:39.020Z,66.90
2017-08-24T00:15:06.476Z,66.90
2017-08-24T00:17:33.934Z,66.80
2017-08-24T00:20:01.393Z,66.80
2017-08-24T00:22:28.848Z,66.80
2017-08-24T00:24:56.288Z,67.00
2017-08-24T00:27:23.741Z,66.90
2017-08-24T00:29:51.205Z,67.20
2017-08-24T00:32:18.656Z,66.80
2017-08-24T00:34:46.104Z,66.80
2017-08-24T00:37:13.557Z,66.80
2017-08-24T00:39:41.010Z,67.20
2017-08-24T00:42:08.477Z,67.30
2017-08-24T00:44:35.928Z,67.30
2017-08-24T00:47:03.386Z,67.20
2017-08-24T00:49:30.832Z,67.50
2017-08-24T00:51:58.281Z,67.60
2017-08-24T00:54:25.733Z,67.80
2017-08-24T00:56:53.185Z,67.90
2017-08-24T00:59:20.638Z,68.70
2017-08-24T01:01:48.093Z,68.00
2017-08-24T01:04:15.557Z,68.30
2017-08-24T01:06:43.015Z,68.20
2017-08-24T01:09:10.476Z,68.30
2017-08-24T01:11:37.935Z,68.30
2017-08-24T01:14:05.377Z,68.50
2017-08-24T01:16:32.843Z,68.70
2017-08-24T01:19:00.303Z,68.80
2017-08-24T01:21:27.758Z,68.80
2017-08-24T01:23:55.197Z,68.80
2017-08-24T01:26:22.645Z,68.90
2017-08-24T01:28:50.102Z,68.80
2017-08-24T01:31:17.539Z,68.70
2017-08-24T01:33:44.983Z,68.70
2017-08-24T01:36:12.420Z,68.80
2017-08-24T01:38:39.890Z,68.80
2017-08-24T01:41:07.340Z,68.90
2017-08-24T01:43:34.800Z,68.90
2017-08-24T01:46:02.247Z,69.10
2017-08-24T01:48:29.705Z,69.30
2017-08-24T01:50:57.166Z,69.40
2017-08-24T01:53:24.621Z,69.80
2017-08-24T01:55:52.080Z,69.60
2017-08-24T01:58:19.542Z,69.90
2017-08-24T02:00:47.465Z,69.70
2017-08-24T02:03:14.909Z,70.60
2017-08-24T02:05:42.370Z,70.80
2017-08-24T02:08:09.826Z,70.80
2017-08-24T02:10:37.277Z,71.60
2017-08-24T02:13:04.741Z,71.00
2017-08-24T02:15:32.193Z,71.60
2017-08-24T02:17:59.652Z,71.20
2017-08-24T02:20:27.111Z,70.90
2017-08-24T02:22:55.757Z,70.90
2017-08-24T02:25:23.218Z,70.50
2017-08-24T02:27:50.656Z,70.60
2017-08-24T02:30:18.104Z,70.50
2017-08-24T02:32:45.545Z,70.70
2017-08-24T02:35:13.004Z,70.60
2017-08-24T02:37:40.452Z,70.40
2017-08-24T02:40:07.896Z,70.60
2017-08-24T02:42:35.376Z,70.30
2017-08-24T02:45:02.832Z,70.40
2017-08-24T02:47:30.296Z,70.20
2017-08-24T02:49:57.757Z,70.00
2017-08-24T02:52:25.219Z,69.90
2017-08-24T02:54:52.672Z,69.60
2017-08-24T02:57:20.133Z,69.40
2017-08-24T02:59:47.596Z,68.90
2017-08-24T03:02:15.044Z,68.90
2017-08-24T03:04:42.496Z,68.20
2017-08-24T03:07:09.949Z,67.90
2017-08-24T03:09:37.400Z,67.70
2017-08-24T03:12:04.860Z,67.80
2017-08-24T03:14:32.312Z,66.90
2017-08-24T03:16:59.778Z,67.00
2017-08-24T03:19:27.216Z,67.00
2017-08-24T03:21:54.677Z,67.20
2017-08-24T03:24:22.129Z,66.70
2017-08-24T03:26:49.595Z,66.70
2017-08-24T03:29:17.044Z,66.70
2017-08-24T03:31:44.508Z,66.80
2017-08-24T03:34:11.956Z,66.40
2017-08-24T03:36:39.412Z,66.70
2017-08-24T03:39:06.875Z,66.70
2017-08-24T03:41:34.336Z,66.10
2017-08-24T03:44:01.813Z,66.70
2017-08-24T03:46:29.257Z,66.80
2017-08-24T03:48:56.713Z,66.80
2017-08-24T03:51:24.173Z,66.90
2017-08-24T03:53:52.508Z,67.00
2017-08-24T03:56:21.400Z,66.90
2017-08-24T03:58:49.129Z,66.40
2017-08-24T04:01:16.576Z,67.10
2017-08-24T04:03:44.045Z,67.40
2017-08-24T04:06:11.489Z,67.20
2017-08-24T04:08:38.941Z,67.30
2017-08-24T04:11:06.401Z,67.10
2017-08-24T04:13:33.844Z,67.20
2017-08-24T04:16:01.306Z,67.30
2017-08-24T04:18:28.743Z,67.40
2017-08-24T04:20:56.197Z,67.40
2017-08-24T04:23:23.643Z,67.50
2017-08-24T04:25:51.108Z,67.20
2017-08-24T04:28:18.564Z,67.40
2017-08-24T04:30:46.021Z,67.40
2017-08-24T04:33:13.476Z,67.40
2017-08-24T04:35:41.701Z,67.50
2017-08-24T04:38:09.164Z,67.60
2017-08-24T04:40:36.624Z,67.70
2017-08-24T04:43:04.085Z,67.80
2017-08-24T04:45:31.528Z,67.90
2017-08-24T04:47:58.988Z,67.80
2017-08-24T04:50:26.449Z,67.80
2017-08-24T04:52:53.901Z,67.70
2017-08-24T04:55:21.365Z,67.80
2017-08-24T04:57:48.821Z,67.80
2017-08-24T05:00:16.277Z,67.80
2017-08-24T05:02:43.731Z,68.60
2017-08-24T05:05:11.284Z,68.00
2017-08-24T05:07:38.742Z,68.00
2017-08-24T05:10:06.210Z,67.90
2017-08-24T05:12:33.669Z,67.90
2017-08-24T05:15:01.108Z,68.10
2017-08-24T05:17:28.564Z,67.90
2017-08-24T05:19:56.021Z,67.90
2017-08-24T05:22:23.472Z,67.90
2017-08-24T05:24:50.929Z,68.70
2017-08-24T05:27:18.416Z,68.10
2017-08-24T05:29:45.884Z,68.00
2017-08-24T05:32:13.336Z,68.00
2017-08-24T05:34:40.797Z,67.90
2017-08-24T05:37:08.245Z,68.00
2017-08-24T05:39:35.710Z,68.40
2017-08-24T05:42:03.168Z,68.00
2017-08-24T05:44:30.642Z,68.10
2017-08-24T05:46:58.096Z,68.20
2017-08-24T05:49:25.548Z,68.80
2017-08-24T05:51:52.996Z,68.10
2017-08-24T05:54:20.444Z,68.10
2017-08-24T05:56:47.892Z,68.30
2017-08-24T05:59:15.362Z,68.20
2017-08-24T06:01:44.029Z,68.10
2017-08-24T06:04:11.486Z,68.30
2017-08-24T06:06:38.940Z,68.30
2017-08-24T06:09:06.396Z,68.40
2017-08-24T06:11:33.850Z,69.10
2017-08-24T06:14:01.300Z,68.40
2017-08-24T06:16:28.748Z,68.30
2017-08-24T06:18:56.195Z,68.40
2017-08-24T06:21:23.653Z,68.30
2017-08-24T06:23:51.405Z,68.50
2017-08-24T06:26:18.876Z,68.70
2017-08-24T06:28:46.322Z,68.60
2017-08-24T06:31:13.786Z,68.70
2017-08-24T06:33:41.237Z,68.90
2017-08-24T06:36:08.682Z,68.90
2017-08-24T06:38:36.138Z,68.90
2017-08-24T06:41:03.596Z,68.80
2017-08-24T06:43:31.050Z,69.00
2017-08-24T06:45:58.505Z,69.20
2017-08-24T06:48:25.954Z,69.00
2017-08-24T06:50:53.414Z,69.10
2017-08-24T06:53:20.856Z,69.10
2017-08-24T06:55:48.312Z,69.00
2017-08-24T06:58:15.773Z,69.10
2017-08-24T07:00:43.233Z,69.20
2017-08-24T07:03:10.687Z,69.50
2017-08-24T07:05:38.131Z,69.50
2017-08-24T07:08:07.058Z,69.40
2017-08-24T07:10:34.517Z,69.40
2017-08-24T07:13:01.965Z,69.30
2017-08-24T07:15:29.417Z,69.10
2017-08-24T07:17:56.873Z,69.40
2017-08-24T07:20:24.327Z,69.30
2017-08-24T07:22:51.780Z,69.30
2017-08-24T07:25:19.228Z,69.40
2017-08-24T07:27:46.684Z,69.30
2017-08-24T07:30:14.145Z,69.30
2017-08-24T07:32:41.606Z,69.30
2017-08-24T07:35:09.069Z,69.50
2017-08-24T07:37:36.521Z,69.50
2017-08-24T07:40:03.965Z,69.60
2017-08-24T07:42:31.420Z,69.60
2017-08-24T07:44:58.869Z,69.50
2017-08-24T07:47:26.324Z,69.50
2017-08-24T07:49:53.769Z,69.50
2017-08-24T07:52:21.233Z,69.50
2017-08-24T07:54:48.688Z,69.30
2017-08-24T07:57:16.138Z,69.30
2017-08-24T07:59:43.593Z,69.30
2017-08-24T08:02:11.060Z,69.20
2017-08-24T08:04:38.524Z,69.30
2017-08-24T08:07:05.981Z,69.40
2017-08-24T08:09:33.444Z,69.30
2017-08-24T08:12:00.905Z,69.30
2017-08-24T08:14:28.360Z,69.30
2017-08-24T08:16:55.816Z,69.20
2017-08-24T08:19:23.256Z,69.10
2017-08-24T08:21:50.704Z,69.10
2017-08-24T08:24:18.160Z,69.20
2017-08-24T08:26:45.620Z,69.10
2017-08-24T08:29:13.081Z,69.10
2017-08-24T08:31:40.537Z,69.30
2017-08-24T08:34:07.997Z,69.20
2017-08-24T08:36:36.952Z,69.20
2017-08-24T08:39:04.402Z,69.20
2017-08-24T08:41:31.845Z,69.10
2017-08-24T08:43:59.304Z,69.20
2017-08-24T08:46:26.746Z,69.20
2017-08-24T08:48:54.201Z,69.20
2017-08-24T08:51:21.660Z,69.10
2017-08-24T08:53:49.121Z,69.00
2017-08-24T08:56:16.568Z,68.60
2017-08-24T08:58:44.734Z,68.50
2017-08-24T09:01:12.181Z,68.30
2017-08-24T09:03:39.637Z,67.50
2017-08-24T09:06:07.093Z,67.80
2017-08-24T09:08:34.544Z,67.90
2017-08-24T09:11:02.002Z,67.20
2017-08-24T09:13:29.452Z,67.30
2017-08-24T09:15:56.908Z,67.30
2017-08-24T09:18:24.352Z,67.30
2017-08-24T09:20:51.814Z,67.30
2017-08-24T09:23:19.260Z,66.90
2017-08-24T09:25:46.723Z,66.80
2017-08-24T09:28:14.177Z,66.40
2017-08-24T09:30:41.625Z,66.70
2017-08-24T09:33:09.081Z,66.60
2017-08-24T09:35:36.532Z,66.80
2017-08-24T09:38:03.985Z,66.80
2017-08-24T09:40:32.829Z,66.00
2017-08-24T09:43:00.288Z,66.20
2017-08-24T09:45:27.736Z,66.20
2017-08-24T09:47:55.177Z,66.20
2017-08-24T09:50:22.642Z,66.20
2017-08-24T09:52:50.092Z,65.60
2017-08-24T09:55:17.549Z,65.80
2017-08-24T09:57:45.002Z,65.80
2017-08-24T10:00:12.456Z,66.10
2017-08-24T10:02:39.917Z,65.80
2017-08-24T10:05:07.365Z,65.60
2017-08-24T10:07:34.828Z,65.70
2017-08-24T10:10:02.281Z,65.80
2017-08-24T10:12:30.590Z,65.90
2017-08-24T10:14:58.049Z,66.00
2017-08-24T10:17:25.497Z,66.00
2017-08-24T10:19:52.958Z,65.70
2017-08-24T10:22:20.422Z,65.80
2017-08-24T10:24:47.882Z,65.70
2017-08-24T10:27:15.328Z,65.00
2017-08-24T10:29:42.807Z,64.30
2017-08-24T10:32:10.237Z,64.10
2017-08-24T10:34:37.698Z,64.60
2017-08-24T10:37:05.149Z,64.60
2017-08-24T10:39:32.593Z,64.50
2017-08-24T10:42:00.048Z,64.50
2017-08-24T10:44:27.518Z,64.30
2017-08-24T10:46:56.093Z,64.00
2017-08-24T10:49:23.541Z,64.20
2017-08-24T10:51:50.995Z,63.60
2017-08-24T10:54:18.445Z,64.10
2017-08-24T10:56:45.888Z,63.80
2017-08-24T10:59:13.340Z,64.00
2017-08-24T11:01:40.802Z,63.90
2017-08-24T11:04:08.264Z,63.40
2017-08-24T11:06:35.721Z,63.40
2017-08-24T11:09:03.193Z,63.30
2017-08-24T11:11:30.649Z,63.20
2017-08-24T11:13:58.105Z,63.00
2017-08-24T11:16:25.561Z,62.90
2017-08-24T11:18:53.004Z,62.60
2017-08-24T11:21:20.477Z,62.70
2017-08-24T11:23:47.928Z,62.50
2017-08-24T11:26:15.389Z,62.10
2017-08-24T11:28:42.844Z,62.50
2017-08-24T11:31:11.516Z,62.40
2017-08-24T11:33:38.972Z,60.80
2017-08-24T11:36:06.417Z,60.80
2017-08-24T11:38:33.876Z,60.00
2017-08-24T11:41:01.318Z,59.50
2017-08-24T11:43:28.773Z,58.90
2017-08-24T11:45:56.223Z,59.70
2017-08-24T11:48:23.671Z,59.50
2017-08-24T11:50:51.126Z,59.30
2017-08-24T11:53:20.013Z,59.50
2017-08-24T11:55:47.469Z,58.50
2017-08-24T11:58:14.924Z,59.10
2017-08-24T12:00:42.367Z,58.90
2017-08-24T12:03:09.808Z,58.00
2017-08-24T12:05:37.277Z,58.00
2017-08-24T12:08:04.736Z,57.90
2017-08-24T12:10:32.195Z,58.10
2017-08-24T12:12:59.641Z,58.20
2017-08-24T12:15:27.091Z,58.40
2017-08-24T12:17:54.546Z,58.00
2017-08-24T12:20:21.988Z,58.50
2017-08-24T12:22:49.444Z,57.40
2017-08-24T12:25:16.895Z,57.00
2017-08-24T12:27:44.350Z,56.90
2017-08-24T12:30:11.831Z,55.70
2017-08-24T12:32:39.279Z,56.00
2017-08-24T12:35:06.733Z,55.60
2017-08-24T12:37:34.201Z,55.40
2017-08-24T12:40:01.645Z,56.20
2017-08-24T12:42:29.107Z,55.60
2017-08-24T12:44:56.558Z,54.50
2017-08-24T12:47:24.000Z,53.90
2017-08-24T12:49:51.463Z,54.60
2017-08-24T12:52:18.909Z,55.00
2017-08-24T12:54:46.676Z,53.90
2017-08-24T12:57:14.129Z,54.40
2017-08-24T12:59:41.589Z,53.80
2017-08-24T13:02:09.049Z,53.60
2017-08-24T13:04:36.502Z,53.60
2017-08-24T13:07:03.977Z,53.10
2017-08-24T13:09:31.425Z,53.00
2017-08-24T13:11:58.897Z,52.70
2017-08-24T13:14:26.349Z,53.00
2017-08-24T13:16:53.814Z,51.70
2017-08-24T13:19:21.272Z,52.00
2017-08-24T13:21:48.731Z,51.40
2017-08-24T13:24:16.180Z,50.10
2017-08-24T13:26:43.649Z,51.00
2017-08-24T13:29:11.100Z,50.60
2017-08-24T13:31:38.549Z,50.80
2017-08-24T13:34:06.028Z,50.60
2017-08-24T13:36:33.479Z,51.10
2017-08-24T13:39:00.941Z,51.20
2017-08-24T13:41:28.398Z,50.10
2017-08-24T13:43:55.845Z,50.10
2017-08-24T13:46:23.312Z,50.00
2017-08-24T13:48:50.761Z,50.30
2017-08-24T13:51:18.217Z,48.30
2017-08-24T13:53:45.656Z,49.10
2017-08-24T13:56:13.101Z,48.60
2017-08-24T13:58:40.561Z,48.80
2017-08-24T14:01:08.010Z,49.10
2017-08-24T14:03:35.469Z,49.50
2017-08-24T14:06:02.929Z,49.50
2017-08-24T14:08:30.382Z,49.40
2017-08-24T14:10:57.844Z,49.30
2017-08-24T14:13:25.304Z,48.60
2017-08-24T14:15:52.769Z,49.30
2017-08-24T14:18:20.239Z,48.70
2017-08-24T14:20:47.702Z,48.40
2017-08-24T14:23:15.155Z,49.10
2017-08-24T14:25:42.613Z,49.00
2017-08-24T14:28:10.057Z,49.10
2017-08-24T14:30:37.517Z,49.20
2017-08-24T14:33:04.971Z,49.10
2017-08-24T14:35:32.430Z,49.20
2017-08-24T14:37:59.868Z,49.10
2017-08-24T14:40:27.329Z,48.50
2017-08-24T14:42:54.768Z,48.70
2017-08-24T14:45:22.220Z,48.80
2017-08-24T14:47:49.679Z,48.80
2017-08-24T14:50:17.620Z,48.60
2017-08-24T14:52:45.080Z,49.00
2017-08-24T14:55:12.528Z,48.80
2017-08-24T14:57:39.986Z,49.10
2017-08-24T15:00:07.440Z,49.00
2017-08-24T15:02:34.917Z,48.00
2017-08-24T15:05:02.365Z,48.20
2017-08-24T15:07:29.845Z,48.20
2017-08-24T15:09:57.293Z,47.90
2017-08-24T15:12:24.737Z,48.70
2017-08-24T15:14:52.192Z,47.70
2017-08-24T15:17:19.653Z,47.70
2017-08-24T15:19:47.109Z,47.80
2017-08-24T15:22:14.564Z,47.90
2017-08-24T15:24:42.028Z,47.90
2017-08-24T15:27:09.489Z,47.60
2017-08-24T15:29:36.955Z,47.50
2017-08-24T15:32:04.405Z,47.00
2017-08-24T15:34:31.861Z,47.00
2017-08-24T15:36:59.309Z,46.50
2017-08-24T15:39:26.764Z,47.10
2017-08-24T15:41:54.225Z,47.10
2017-08-24T15:44:21.674Z,46.70
2017-08-24T15:46:49.110Z,46.80
2017-08-24T15:49:16.555Z,46.30
2017-08-24T15:51:44.016Z,47.00
2017-08-24T15:54:11.465Z,47.30
2017-08-24T15:56:39.536Z,46.80
2017-08-24T15:59:06.997Z,46.90
2017-08-24T16:01:34.507Z,47.40
2017-08-24T16:04:01.965Z,47.40
2017-08-24T16:06:29.421Z,47.40
2017-08-24T16:08:57.553Z,47.50
2017-08-24T16:11:25.000Z,47.60
2017-08-24T16:13:52.461Z,47.30
2017-08-24T16:16:19.920Z,47.40
2017-08-24T16:18:47.378Z,47.40
2017-08-24T16:21:14.828Z,47.60
2017-08-24T16:23:42.296Z,47.40
2017-08-24T16:26:09.752Z,47.80
2017-08-24T16:28:37.213Z,47.80
2017-08-24T16:31:04.681Z,47.80
2017-08-24T16:33:32.161Z,47.80
2017-08-24T16:35:59.625Z,47.80
2017-08-24T16:38:27.076Z,47.70
2017-08-24T16:40:54.525Z,47.90
2017-08-24T16:43:22.010Z,47.90
2017-08-24T16:45:49.565Z,47.70
2017-08-24T16:48:17.046Z,47.80
2017-08-24T16:50:44.489Z,48.10
2017-08-24T16:53:12.049Z,47.90
2017-08-24T16:55:39.505Z,47.70
2017-08-24T16:58:06.968Z,47.60
2017-08-24T17:00:34.474Z,48.20
2017-08-24T17:03:01.974Z,48.10
2017-08-24T17:05:29.440Z,48.80
2017-08-24T17:07:56.927Z,48.20
2017-08-24T17:10:26.016Z,48.40
2017-08-24T17:12:53.562Z,48.30
2017-08-24T17:15:21.110Z,48.10
2017-08-24T17:17:48.567Z,48.40
2017-08-24T17:20:16.053Z,48.40
2017-08-24T17:22:44.085Z,48.40
2017-08-24T17:25:11.540Z,48.50
2017-08-24T17:27:39.028Z,49.20
2017-08-24T17:30:06.500Z,48.70
2017-08-24T17:32:33.961Z,48.80
2017-08-24T17:35:01.829Z,48.90
2017-08-24T17:37:29.296Z,48.90
2017-08-24T17:39:56.765Z,49.10
2017-08-24T17:42:24.220Z,49.10
2017-08-24T17:44:51.724Z,49.30
2017-08-24T17:47:19.241Z,49.40
2017-08-24T17:49:46.679Z,49.50
2017-08-24T17:52:14.110Z,50.40
2017-08-24T17:54:41.574Z,50.00
2017-08-24T17:57:09.044Z,50.10
2017-08-24T17:59:36.518Z,50.20
2017-08-24T18:02:03.992Z,50.20
2017-08-24T18:04:31.427Z,50.40
2017-08-24T18:06:58.893Z,50.60
2017-08-24T18:09:26.375Z,50.70
2017-08-24T18:11:53.820Z,50.80
2017-08-24T18:14:21.640Z,51.10
2017-08-24T18:16:49.280Z,51.20
2017-08-24T18:19:16.757Z,51.40
2017-08-24T18:21:44.202Z,51.70
2017-08-24T18:24:11.685Z,51.80
2017-08-24T18:26:39.160Z,52.10
2017-08-24T18:29:06.613Z,52.20
2017-08-24T18:31:34.192Z,52.30
2017-08-24T18:34:01.681Z,52.60
2017-08-24T18:36:29.122Z,52.70
2017-08-24T18:38:56.601Z,53.10
2017-08-24T18:41:24.068Z,53.90
2017-08-24T18:43:51.556Z,53.60
2017-08-24T18:46:20.369Z,53.70
2017-08-24T18:48:47.833Z,54.10
2017-08-24T18:51:15.321Z,54.60
2017-08-24T18:53:42.855Z,54.90
2017-08-24T18:56:10.304Z,55.10
2017-08-24T18:58:37.776Z,55.70
2017-08-24T19:01:05.257Z,55.70
2017-08-24T19:03:33.567Z,55.90
2017-08-24T19:06:01.009Z,56.00
2017-08-24T19:08:28.576Z,56.00
2017-08-24T19:10:56.039Z,56.00
2017-08-24T19:13:23.484Z,56.20
2017-08-24T19:15:50.937Z,56.20
2017-08-24T19:18:18.396Z,56.30
2017-08-24T19:20:45.850Z,56.40
2017-08-24T19:23:13.295Z,56.60
2017-08-24T19:25:40.752Z,56.80
2017-08-24T19:28:08.589Z,57.10
2017-08-24T19:30:36.039Z,57.20
2017-08-24T19:33:03.624Z,57.30
2017-08-24T19:35:31.080Z,57.50
2017-08-24T19:37:58.548Z,57.50
2017-08-24T19:40:26.024Z,57.60
2017-08-24T19:42:53.926Z,57.60
2017-08-24T19:45:21.361Z,57.70
2017-08-24T19:47:48.802Z,57.70
2017-08-24T19:50:16.325Z,57.80
2017-08-24T19:52:43.788Z,57.80
2017-08-24T19:55:12.044Z,57.70
2017-08-24T19:57:39.504Z,57.90
2017-08-24T20:00:07.000Z,57.90
2017-08-24T20:02:34.441Z,58.10
2017-08-24T20:05:01.902Z,58.10
2017-08-24T20:07:29.361Z,58.20
2017-08-24T20:09:57.208Z,58.50
2017-08-24T20:12:24.661Z,59.00
2017-08-24T20:14:52.104Z,59.20
2017-08-24T20:17:19.645Z,59.50
2017-08-24T20:19:47.102Z,59.60
2017-08-24T20:22:14.557Z,59.60
2017-08-24T20:24:42.036Z,59.60
2017-08-24T20:27:09.499Z,59.50
2017-08-24T20:29:36.950Z,59.40
2017-08-24T20:32:04.404Z,59.50
2017-08-24T20:34:31.853Z,59.50
2017-08-24T20:36:59.324Z,59.50
2017-08-24T20:39:26.773Z,59.80
2017-08-24T20:41:54.216Z,59.70
2017-08-24T20:44:21.667Z,59.70
2017-08-24T20:46:49.116Z,60.00
2017-08-24T20:49:16.578Z,61.00
2017-08-24T20:51:44.025Z,60.60
2017-08-24T20:54:11.489Z,60.70
2017-08-24T20:56:38.939Z,60.60
2017-08-24T20:59:06.402Z,60.60
2017-08-24T21:01:33.913Z,60.60
2017-08-24T21:04:01.353Z,60.70
2017-08-24T21:06:28.821Z,61.10
2017-08-24T21:08:56.269Z,61.00
2017-08-24T21:11:23.716Z,61.10
2017-08-24T21:13:51.172Z,61.20
2017-08-24T21:16:18.636Z,61.20
2017-08-24T21:18:46.088Z,61.40
2017-08-24T21:21:13.554Z,61.50
2017-08-24T21:23:41.024Z,61.50
2017-08-24T21:26:08.480Z,61.40
2017-08-24T21:28:35.937Z,61.40
2017-08-24T21:31:03.423Z,61.60
2017-08-24T21:33:30.881Z,61.60
2017-08-24T21:35:58.325Z,62.50
2017-08-24T21:38:25.768Z,61.90
2017-08-24T21:40:53.229Z,61.90
2017-08-24T21:43:20.676Z,62.00
2017-08-24T21:45:48.124Z,62.10
2017-08-24T21:48:15.577Z,62.30
2017-08-24T21:50:43.026Z,62.30
2017-08-24T21:53:10.475Z,62.40
2017-08-24T21:55:37.913Z,62.50
2017-08-24T21:58:05.363Z,62.80
2017-08-24T22:00:32.810Z,62.70
2017-08-24T22:03:00.269Z,62.50
2017-08-24T22:05:27.713Z,62.60
2017-08-24T22:07:55.169Z,62.70
2017-08-24T22:10:22.644Z,62.60
2017-08-24T22:12:50.080Z,62.60
2017-08-24T22:15:17.533Z,62.80
2017-08-24T22:17:44.995Z,62.90
2017-08-24T22:20:12.451Z,63.00
2017-08-24T22:22:39.902Z,63.10
2017-08-24T22:25:07.353Z,63.20
2017-08-24T22:27:34.800Z,63.20
2017-08-24T22:30:02.253Z,63.30
2017-08-24T22:32:29.705Z,63.50
2017-08-24T22:34:57.146Z,63.70
2017-08-24T22:37:24.582Z,63.80
2017-08-24T22:39:52.019Z,64.00
2017-08-24T22:42:19.454Z,64.10
2017-08-24T22:44:46.917Z,64.20
2017-08-24T22:47:14.356Z,64.00
2017-08-24T22:49:41.817Z,64.30
2017-08-24T22:52:09.261Z,64.30
2017-08-24T22:54:42.408Z,64.40
2017-08-24T22:57:15.616Z,64.30
2017-08-24T22:59:48.649Z,64.60
2017-08-24T23:02:21.721Z,64.70
2017-08-24T23:04:49.185Z,64.70
2017-08-24T23:07:16.648Z,64.80
2017-08-24T23:09:44.100Z,64.70
2017-08-24T23:12:11.545Z,64.80
2017-08-24T23:14:39.009Z,64.70
2017-08-24T23:17:06.469Z,64.90
2017-08-24T23:19:33.933Z,65.20
2017-08-24T23:22:01.388Z,65.50
2017-08-24T23:24:28.840Z,65.60
2017-08-24T23:26:56.302Z,65.90
2017-08-24T23:29:23.748Z,65.80
2017-08-24T23:31:51.208Z,65.70
2017-08-24T23:34:18.649Z,65.60
2017-08-24T23:36:46.101Z,65.60
2017-08-24T23:39:13.556Z,65.60
2017-08-24T23:41:41.014Z,66.00
2017-08-24T23:44:08.465Z,65.80
2017-08-24T23:46:35.912Z,65.70
2017-08-24T23:49:03.368Z,65.90
2017-08-24T23:51:30.830Z,65.80
2017-08-24T23:53:58.275Z,65.80
2017-08-24T23:56:25.784Z,65.80
2017-08-24T23:58:53.228Z,65.80
